sensor_id;sensor_type;location;lat;lon;timestamp;P1;durP1;ratioP1;P2;durP2;ratioP2
65668;SDS011;52376;47.448;19.354;2022-12-18T00:00:01;7.32;;;1.85;;
65668;SDS011;52376;47.448;19.354;2022-12-18T00:02:40;0.08;;;0.08;;
65668;SDS011;52376;47.448;19.354;2022-12-18T00:05:08;1.75;;;1.65;;
65668;SDS011;52376;47.448;19.354;2022-12-18T00:07:35;0.00;;;0.00;;
65668;SDS011;52376;47.448;19.354;2022-12-18T00:10:03;0.37;;;0.37;;
65668;SDS011;52376;47.448;19.354;2022-12-18T00:12:32;0.55;;;0.55;;
65668;SDS011;52376;47.448;19.354;2022-12-18T00:15:00;0.75;;;0.75;;
65668;SDS011;52376;47.448;19.354;2022-12-18T00:17:27;0.00;;;0.00;;
65668;SDS011;52376;47.448;19.354;2022-12-18T00:19:56;0.00;;;0.00;;
65668;SDS011;52376;47.448;19.354;2022-12-18T00:22:23;0.82;;;0.82;;
65668;SDS011;52376;47.448;19.354;2022-12-18T00:24:51;0.00;;;0.00;;
65668;SDS011;52376;47.448;19.354;2022-12-18T00:27:19;0.43;;;0.43;;
65668;SDS011;52376;47.448;19.354;2022-12-18T00:29:47;0.00;;;0.00;;
65668;SDS011;52376;47.448;19.354;2022-12-18T00:32:15;0.95;;;0.95;;
65668;SDS011;52376;47.448;19.354;2022-12-18T00:34:43;4.93;;;3.40;;
65668;SDS011;52376;47.448;19.354;2022-12-18T00:37:11;2.28;;;2.05;;
65668;SDS011;52376;47.448;19.354;2022-12-18T00:39:50;0.30;;;0.30;;
65668;SDS011;52376;47.448;19.354;2022-12-18T00:42:19;0.90;;;0.85;;
65668;SDS011;52376;47.448;19.354;2022-12-18T00:44:47;0.05;;;0.05;;
65668;SDS011;52376;47.448;19.354;2022-12-18T00:47:15;0.60;;;0.60;;
65668;SDS011;52376;47.448;19.354;2022-12-18T00:49:43;0.00;;;0.00;;
65668;SDS011;52376;47.448;19.354;2022-12-18T00:52:11;0.10;;;0.10;;
65668;SDS011;52376;47.448;19.354;2022-12-18T00:54:39;0.00;;;0.00;;
65668;SDS011;52376;47.448;19.354;2022-12-18T00:57:06;0.20;;;0.20;;
65668;SDS011;52376;47.448;19.354;2022-12-18T00:59:34;1.37;;;1.27;;
65668;SDS011;52376;47.448;19.354;2022-12-18T01:02:02;0.00;;;0.00;;
65668;SDS011;52376;47.448;19.354;2022-12-18T01:04:33;0.00;;;0.00;;
65668;SDS011;52376;47.448;19.354;2022-12-18T01:07:01;0.10;;;0.10;;
65668;SDS011;52376;47.448;19.354;2022-12-18T01:09:31;2.10;;;1.92;;
65668;SDS011;52376;47.448;19.354;2022-12-18T01:11:59;0.00;;;0.00;;
65668;SDS011;52376;47.448;19.354;2022-12-18T01:14:27;1.45;;;1.35;;
65668;SDS011;52376;47.448;19.354;2022-12-18T01:16:55;0.68;;;0.68;;
65668;SDS011;52376;47.448;19.354;2022-12-18T01:21:54;0.13;;;0.13;;
65668;SDS011;52376;47.448;19.354;2022-12-18T01:24:22;0.88;;;0.88;;
65668;SDS011;52376;47.448;19.354;2022-12-18T01:26:50;0.10;;;0.10;;
65668;SDS011;52376;47.448;19.354;2022-12-18T01:29:18;4.85;;;1.45;;
65668;SDS011;52376;47.448;19.354;2022-12-18T01:31:45;0.57;;;0.57;;
65668;SDS011;52376;47.448;19.354;2022-12-18T01:34:13;0.00;;;0.00;;
65668;SDS011;52376;47.448;19.354;2022-12-18T01:36:41;0.65;;;0.65;;
65668;SDS011;52376;47.448;19.354;2022-12-18T01:39:10;0.32;;;0.32;;
65668;SDS011;52376;47.448;19.354;2022-12-18T01:41:41;1.20;;;1.17;;
65668;SDS011;52376;47.448;19.354;2022-12-18T01:50:18;1.80;;;1.42;;
65668;SDS011;52376;47.448;19.354;2022-12-18T01:53:34;0.62;;;0.62;;
65668;SDS011;52376;47.448;19.354;2022-12-18T01:55:53;0.22;;;0.22;;
65668;SDS011;52376;47.448;19.354;2022-12-18T02:01:12;1.75;;;1.00;;
65668;SDS011;52376;47.448;19.354;2022-12-18T02:03:43;0.55;;;0.50;;
65668;SDS011;52376;47.448;19.354;2022-12-18T02:06:27;0.00;;;0.00;;
65668;SDS011;52376;47.448;19.354;2022-12-18T02:19:35;0.37;;;0.37;;
65668;SDS011;52376;47.448;19.354;2022-12-18T02:27:33;0.20;;;0.15;;
65668;SDS011;52376;47.448;19.354;2022-12-18T02:30:03;0.55;;;0.55;;
65668;SDS011;52376;47.448;19.354;2022-12-18T02:32:33;0.00;;;0.00;;
65668;SDS011;52376;47.448;19.354;2022-12-18T02:35:04;0.70;;;0.70;;
65668;SDS011;52376;47.448;19.354;2022-12-18T02:37:34;1.62;;;1.52;;
65668;SDS011;52376;47.448;19.354;2022-12-18T02:40:04;0.00;;;0.00;;
65668;SDS011;52376;47.448;19.354;2022-12-18T02:42:32;0.00;;;0.00;;
65668;SDS011;52376;47.448;19.354;2022-12-18T02:45:01;0.00;;;0.00;;
65668;SDS011;52376;47.448;19.354;2022-12-18T02:47:31;3.40;;;2.33;;
65668;SDS011;52376;47.448;19.354;2022-12-18T02:50:26;0.00;;;0.00;;
65668;SDS011;52376;47.448;19.354;2022-12-18T03:01:24;0.35;;;0.15;;
65668;SDS011;52376;47.448;19.354;2022-12-18T03:04:14;2.10;;;1.90;;
65668;SDS011;52376;47.448;19.354;2022-12-18T03:06:46;0.32;;;0.32;;
65668;SDS011;52376;47.448;19.354;2022-12-18T03:09:18;0.00;;;0.00;;
65668;SDS011;52376;47.448;19.354;2022-12-18T03:11:51;1.75;;;1.65;;
65668;SDS011;52376;47.448;19.354;2022-12-18T03:14:22;0.00;;;0.00;;
65668;SDS011;52376;47.448;19.354;2022-12-18T03:16:52;0.17;;;0.17;;
65668;SDS011;52376;47.448;19.354;2022-12-18T03:19:22;0.22;;;0.22;;
65668;SDS011;52376;47.448;19.354;2022-12-18T03:21:56;0.75;;;0.75;;
65668;SDS011;52376;47.448;19.354;2022-12-18T03:24:26;1.00;;;0.90;;
65668;SDS011;52376;47.448;19.354;2022-12-18T03:26:57;0.00;;;0.00;;
65668;SDS011;52376;47.448;19.354;2022-12-18T03:32:15;1.50;;;1.33;;
65668;SDS011;52376;47.448;19.354;2022-12-18T03:34:50;1.00;;;1.00;;
65668;SDS011;52376;47.448;19.354;2022-12-18T03:37:20;0.00;;;0.00;;
65668;SDS011;52376;47.448;19.354;2022-12-18T03:39:48;0.55;;;0.52;;
65668;SDS011;52376;47.448;19.354;2022-12-18T03:55:24;0.32;;;0.32;;
65668;SDS011;52376;47.448;19.354;2022-12-18T03:57:54;4.97;;;2.53;;
65668;SDS011;52376;47.448;19.354;2022-12-18T04:00:24;32.38;;;3.45;;
65668;SDS011;52376;47.448;19.354;2022-12-18T04:02:53;0.70;;;0.70;;
65668;SDS011;52376;47.448;19.354;2022-12-18T04:05:22;6.45;;;2.78;;
65668;SDS011;52376;47.448;19.354;2022-12-18T04:07:52;0.10;;;0.10;;
65668;SDS011;52376;47.448;19.354;2022-12-18T04:10:21;0.30;;;0.30;;
65668;SDS011;52376;47.448;19.354;2022-12-18T04:12:49;0.28;;;0.28;;
65668;SDS011;52376;47.448;19.354;2022-12-18T04:15:16;0.00;;;0.00;;
65668;SDS011;52376;47.448;19.354;2022-12-18T04:17:48;0.00;;;0.00;;
65668;SDS011;52376;47.448;19.354;2022-12-18T04:20:17;1.33;;;1.27;;
65668;SDS011;52376;47.448;19.354;2022-12-18T04:22:45;0.10;;;0.10;;
65668;SDS011;52376;47.448;19.354;2022-12-18T04:25:13;29.60;;;3.10;;
65668;SDS011;52376;47.448;19.354;2022-12-18T04:27:46;0.40;;;0.40;;
65668;SDS011;52376;47.448;19.354;2022-12-18T04:30:14;0.20;;;0.20;;
65668;SDS011;52376;47.448;19.354;2022-12-18T04:32:41;2.55;;;2.35;;
65668;SDS011;52376;47.448;19.354;2022-12-18T04:35:16;1.25;;;1.25;;
65668;SDS011;52376;47.448;19.354;2022-12-18T04:37:44;0.45;;;0.45;;
65668;SDS011;52376;47.448;19.354;2022-12-18T04:40:12;0.52;;;0.52;;
65668;SDS011;52376;47.448;19.354;2022-12-18T04:42:40;1.17;;;1.15;;
65668;SDS011;52376;47.448;19.354;2022-12-18T04:45:08;5.55;;;2.17;;
65668;SDS011;52376;47.448;19.354;2022-12-18T04:47:36;1.30;;;1.23;;
65668;SDS011;52376;47.448;19.354;2022-12-18T04:50:04;0.10;;;0.10;;
65668;SDS011;52376;47.448;19.354;2022-12-18T04:52:32;0.00;;;0.00;;
65668;SDS011;52376;47.448;19.354;2022-12-18T04:55:00;0.00;;;0.00;;
65668;SDS011;52376;47.448;19.354;2022-12-18T04:57:28;1.17;;;1.15;;
65668;SDS011;52376;47.448;19.354;2022-12-18T04:59:56;1.00;;;1.00;;
65668;SDS011;52376;47.448;19.354;2022-12-18T05:02:23;1.30;;;1.20;;
65668;SDS011;52376;47.448;19.354;2022-12-18T05:04:51;3.75;;;3.37;;
65668;SDS011;52376;47.448;19.354;2022-12-18T05:07:19;5.22;;;4.78;;
65668;SDS011;52376;47.448;19.354;2022-12-18T05:09:47;0.88;;;0.88;;
65668;SDS011;52376;47.448;19.354;2022-12-18T05:12:14;1.55;;;1.15;;
65668;SDS011;52376;47.448;19.354;2022-12-18T05:14:42;0.00;;;0.00;;
65668;SDS011;52376;47.448;19.354;2022-12-18T05:17:10;0.10;;;0.10;;
65668;SDS011;52376;47.448;19.354;2022-12-18T05:19:38;4.82;;;4.43;;
65668;SDS011;52376;47.448;19.354;2022-12-18T05:22:06;0.00;;;0.00;;
65668;SDS011;52376;47.448;19.354;2022-12-18T05:24:33;11.02;;;1.77;;
65668;SDS011;52376;47.448;19.354;2022-12-18T05:27:02;6.40;;;2.65;;
65668;SDS011;52376;47.448;19.354;2022-12-18T05:29:30;0.08;;;0.08;;
65668;SDS011;52376;47.448;19.354;2022-12-18T05:31:57;0.00;;;0.00;;
65668;SDS011;52376;47.448;19.354;2022-12-18T05:34:25;0.50;;;0.50;;
65668;SDS011;52376;47.448;19.354;2022-12-18T05:36:53;0.70;;;0.70;;
65668;SDS011;52376;47.448;19.354;2022-12-18T05:39:20;5.10;;;2.53;;
65668;SDS011;52376;47.448;19.354;2022-12-18T05:41:48;0.05;;;0.05;;
65668;SDS011;52376;47.448;19.354;2022-12-18T05:44:16;0.90;;;0.90;;
65668;SDS011;52376;47.448;19.354;2022-12-18T05:46:44;0.13;;;0.13;;
65668;SDS011;52376;47.448;19.354;2022-12-18T05:49:12;1.40;;;1.35;;
65668;SDS011;52376;47.448;19.354;2022-12-18T05:51:39;0.47;;;0.47;;
65668;SDS011;52376;47.448;19.354;2022-12-18T05:54:07;0.17;;;0.17;;
65668;SDS011;52376;47.448;19.354;2022-12-18T05:56:35;1.65;;;1.55;;
65668;SDS011;52376;47.448;19.354;2022-12-18T05:59:03;1.55;;;1.45;;
65668;SDS011;52376;47.448;19.354;2022-12-18T06:01:31;0.13;;;0.13;;
65668;SDS011;52376;47.448;19.354;2022-12-18T06:03:59;0.43;;;0.43;;
65668;SDS011;52376;47.448;19.354;2022-12-18T06:06:27;0.20;;;0.20;;
65668;SDS011;52376;47.448;19.354;2022-12-18T06:08:56;0.80;;;0.77;;
65668;SDS011;52376;47.448;19.354;2022-12-18T06:11:25;0.00;;;0.00;;
65668;SDS011;52376;47.448;19.354;2022-12-18T06:13:54;0.10;;;0.10;;
65668;SDS011;52376;47.448;19.354;2022-12-18T06:16:28;0.15;;;0.15;;
65668;SDS011;52376;47.448;19.354;2022-12-18T06:19:01;0.00;;;0.00;;
65668;SDS011;52376;47.448;19.354;2022-12-18T06:21:31;0.00;;;0.00;;
65668;SDS011;52376;47.448;19.354;2022-12-18T06:24:00;0.20;;;0.20;;
65668;SDS011;52376;47.448;19.354;2022-12-18T06:26:27;6.22;;;1.95;;
65668;SDS011;52376;47.448;19.354;2022-12-18T06:28:55;0.20;;;0.20;;
65668;SDS011;52376;47.448;19.354;2022-12-18T06:31:23;2.17;;;1.98;;
65668;SDS011;52376;47.448;19.354;2022-12-18T06:33:51;1.17;;;1.08;;
65668;SDS011;52376;47.448;19.354;2022-12-18T06:36:19;1.35;;;1.35;;
65668;SDS011;52376;47.448;19.354;2022-12-18T06:38:47;0.03;;;0.03;;
65668;SDS011;52376;47.448;19.354;2022-12-18T06:41:16;0.70;;;0.70;;
65668;SDS011;52376;47.448;19.354;2022-12-18T06:43:45;3.80;;;2.85;;
65668;SDS011;52376;47.448;19.354;2022-12-18T06:46:13;1.37;;;1.27;;
65668;SDS011;52376;47.448;19.354;2022-12-18T06:48:41;0.00;;;0.00;;
65668;SDS011;52376;47.448;19.354;2022-12-18T06:51:10;0.35;;;0.35;;
65668;SDS011;52376;47.448;19.354;2022-12-18T06:53:38;1.75;;;1.45;;
65668;SDS011;52376;47.448;19.354;2022-12-18T06:56:06;1.15;;;1.12;;
65668;SDS011;52376;47.448;19.354;2022-12-18T06:58:38;1.00;;;1.00;;
65668;SDS011;52376;47.448;19.354;2022-12-18T07:01:08;0.70;;;0.70;;
65668;SDS011;52376;47.448;19.354;2022-12-18T07:03:38;1.00;;;1.00;;
65668;SDS011;52376;47.448;19.354;2022-12-18T07:06:14;2.83;;;2.62;;
65668;SDS011;52376;47.448;19.354;2022-12-18T07:08:44;1.87;;;1.77;;
65668;SDS011;52376;47.448;19.354;2022-12-18T07:11:12;3.87;;;3.25;;
65668;SDS011;52376;47.448;19.354;2022-12-18T07:13:43;1.83;;;0.97;;
65668;SDS011;52376;47.448;19.354;2022-12-18T07:16:13;18.95;;;7.87;;
65668;SDS011;52376;47.448;19.354;2022-12-18T07:18:48;5.50;;;5.15;;
65668;SDS011;52376;47.448;19.354;2022-12-18T07:21:17;0.20;;;0.20;;
65668;SDS011;52376;47.448;19.354;2022-12-18T07:23:46;0.10;;;0.10;;
65668;SDS011;52376;47.448;19.354;2022-12-18T07:26:17;4.37;;;3.55;;
65668;SDS011;52376;47.448;19.354;2022-12-18T07:28:47;0.10;;;0.10;;
65668;SDS011;52376;47.448;19.354;2022-12-18T07:31:16;1.95;;;1.85;;
65668;SDS011;52376;47.448;19.354;2022-12-18T07:33:45;5.62;;;3.80;;
65668;SDS011;52376;47.448;19.354;2022-12-18T07:36:13;2.22;;;2.08;;
65668;SDS011;52376;47.448;19.354;2022-12-18T07:38:41;1.50;;;1.40;;
65668;SDS011;52376;47.448;19.354;2022-12-18T07:41:10;0.52;;;0.52;;
65668;SDS011;52376;47.448;19.354;2022-12-18T07:43:40;0.95;;;0.82;;
65668;SDS011;52376;47.448;19.354;2022-12-18T07:46:09;1.80;;;1.73;;
65668;SDS011;52376;47.448;19.354;2022-12-18T07:51:08;1.60;;;1.50;;
65668;SDS011;52376;47.448;19.354;2022-12-18T07:53:36;3.47;;;1.92;;
65668;SDS011;52376;47.448;19.354;2022-12-18T07:56:06;5.60;;;5.15;;
65668;SDS011;52376;47.448;19.354;2022-12-18T07:58:55;9.35;;;6.78;;
65668;SDS011;52376;47.448;19.354;2022-12-18T08:01:24;4.22;;;2.65;;
65668;SDS011;52376;47.448;19.354;2022-12-18T08:03:52;1.17;;;1.17;;
65668;SDS011;52376;47.448;19.354;2022-12-18T08:06:20;1.98;;;1.85;;
65668;SDS011;52376;47.448;19.354;2022-12-18T08:08:51;4.47;;;2.37;;
65668;SDS011;52376;47.448;19.354;2022-12-18T08:11:20;1.70;;;1.60;;
65668;SDS011;52376;47.448;19.354;2022-12-18T08:13:48;1.17;;;1.12;;
65668;SDS011;52376;47.448;19.354;2022-12-18T08:16:16;0.37;;;0.37;;
65668;SDS011;52376;47.448;19.354;2022-12-18T08:18:45;1.73;;;1.62;;
65668;SDS011;52376;47.448;19.354;2022-12-18T08:21:14;1.33;;;1.27;;
65668;SDS011;52376;47.448;19.354;2022-12-18T08:23:43;2.20;;;2.05;;
65668;SDS011;52376;47.448;19.354;2022-12-18T08:26:12;0.85;;;0.85;;
65668;SDS011;52376;47.448;19.354;2022-12-18T08:28:40;4.37;;;2.20;;
65668;SDS011;52376;47.448;19.354;2022-12-18T08:31:16;0.65;;;0.65;;
65668;SDS011;52376;47.448;19.354;2022-12-18T08:33:45;0.93;;;0.93;;
65668;SDS011;52376;47.448;19.354;2022-12-18T08:36:13;1.65;;;1.55;;
65668;SDS011;52376;47.448;19.354;2022-12-18T08:38:40;1.90;;;1.80;;
65668;SDS011;52376;47.448;19.354;2022-12-18T08:41:09;0.85;;;0.85;;
65668;SDS011;52376;47.448;19.354;2022-12-18T08:43:39;2.85;;;2.62;;
65668;SDS011;52376;47.448;19.354;2022-12-18T08:46:07;0.08;;;0.08;;
65668;SDS011;52376;47.448;19.354;2022-12-18T08:48:35;2.37;;;2.17;;
65668;SDS011;52376;47.448;19.354;2022-12-18T08:51:03;4.00;;;1.65;;
65668;SDS011;52376;47.448;19.354;2022-12-18T08:53:31;0.10;;;0.10;;
65668;SDS011;52376;47.448;19.354;2022-12-18T08:56:02;0.40;;;0.40;;
65668;SDS011;52376;47.448;19.354;2022-12-18T08:58:31;2.90;;;2.10;;
65668;SDS011;52376;47.448;19.354;2022-12-18T09:01:02;3.03;;;2.83;;
65668;SDS011;52376;47.448;19.354;2022-12-18T09:03:32;1.42;;;0.90;;
65668;SDS011;52376;47.448;19.354;2022-12-18T09:05:59;0.10;;;0.10;;
65668;SDS011;52376;47.448;19.354;2022-12-18T09:08:28;2.97;;;2.78;;
65668;SDS011;52376;47.448;19.354;2022-12-18T09:10:56;2.62;;;1.73;;
65668;SDS011;52376;47.448;19.354;2022-12-18T09:13:24;0.60;;;0.50;;
65668;SDS011;52376;47.448;19.354;2022-12-18T09:15:53;0.45;;;0.45;;
65668;SDS011;52376;47.448;19.354;2022-12-18T09:18:23;0.65;;;0.65;;
65668;SDS011;52376;47.448;19.354;2022-12-18T09:20:51;4.62;;;1.92;;
65668;SDS011;52376;47.448;19.354;2022-12-18T09:23:18;0.00;;;0.00;;
65668;SDS011;52376;47.448;19.354;2022-12-18T09:25:47;2.25;;;2.12;;
65668;SDS011;52376;47.448;19.354;2022-12-18T09:28:18;0.98;;;0.95;;
65668;SDS011;52376;47.448;19.354;2022-12-18T09:30:46;0.73;;;0.73;;
65668;SDS011;52376;47.448;19.354;2022-12-18T09:33:18;0.20;;;0.20;;
65668;SDS011;52376;47.448;19.354;2022-12-18T09:35:46;0.20;;;0.20;;
65668;SDS011;52376;47.448;19.354;2022-12-18T09:38:16;0.10;;;0.10;;
65668;SDS011;52376;47.448;19.354;2022-12-18T09:40:45;2.20;;;1.85;;
65668;SDS011;52376;47.448;19.354;2022-12-18T09:43:20;0.80;;;0.80;;
65668;SDS011;52376;47.448;19.354;2022-12-18T09:45:58;2.85;;;2.65;;
65668;SDS011;52376;47.448;19.354;2022-12-18T09:48:31;0.82;;;0.82;;
65668;SDS011;52376;47.448;19.354;2022-12-18T09:51:02;1.35;;;0.82;;
65668;SDS011;52376;47.448;19.354;2022-12-18T09:53:44;0.55;;;0.55;;
65668;SDS011;52376;47.448;19.354;2022-12-18T09:56:16;3.90;;;3.45;;
65668;SDS011;52376;47.448;19.354;2022-12-18T09:58:58;0.00;;;0.00;;
65668;SDS011;52376;47.448;19.354;2022-12-18T10:01:27;1.25;;;0.95;;
65668;SDS011;52376;47.448;19.354;2022-12-18T10:04:08;1.10;;;1.08;;
65668;SDS011;52376;47.448;19.354;2022-12-18T10:06:43;0.43;;;0.30;;
65668;SDS011;52376;47.448;19.354;2022-12-18T10:11:45;0.40;;;0.40;;
65668;SDS011;52376;47.448;19.354;2022-12-18T10:14:22;0.82;;;0.75;;
65668;SDS011;52376;47.448;19.354;2022-12-18T10:16:59;2.35;;;1.00;;
65668;SDS011;52376;47.448;19.354;2022-12-18T10:19:47;0.20;;;0.20;;
65668;SDS011;52376;47.448;19.354;2022-12-18T10:27:51;1.40;;;0.93;;
65668;SDS011;52376;47.448;19.354;2022-12-18T10:30:21;4.68;;;1.42;;
65668;SDS011;52376;47.448;19.354;2022-12-18T10:32:50;1.37;;;1.33;;
65668;SDS011;52376;47.448;19.354;2022-12-18T10:35:25;1.23;;;1.12;;
65668;SDS011;52376;47.448;19.354;2022-12-18T10:43:34;5.82;;;2.60;;
65668;SDS011;52376;47.448;19.354;2022-12-18T10:48:40;1.55;;;1.40;;
65668;SDS011;52376;47.448;19.354;2022-12-18T10:51:24;1.35;;;1.25;;
65668;SDS011;52376;47.448;19.354;2022-12-18T10:54:04;2.58;;;2.00;;
65668;SDS011;52376;47.448;19.354;2022-12-18T10:56:35;0.43;;;0.43;;
65668;SDS011;52376;47.448;19.354;2022-12-18T10:59:08;4.57;;;1.58;;
65668;SDS011;52376;47.448;19.354;2022-12-18T11:04:30;2.10;;;2.00;;
65668;SDS011;52376;47.448;19.354;2022-12-18T11:09:28;4.37;;;2.15;;
65668;SDS011;52376;47.448;19.354;2022-12-18T11:11:57;0.00;;;0.00;;
65668;SDS011;52376;47.448;19.354;2022-12-18T11:19:59;8.38;;;2.28;;
65668;SDS011;52376;47.448;19.354;2022-12-18T11:22:30;1.10;;;1.00;;
65668;SDS011;52376;47.448;19.354;2022-12-18T11:25:04;4.37;;;2.12;;
65668;SDS011;52376;47.448;19.354;2022-12-18T11:36:56;2.55;;;1.08;;
65668;SDS011;52376;47.448;19.354;2022-12-18T11:42:12;3.58;;;1.37;;
65668;SDS011;52376;47.448;19.354;2022-12-18T11:44:51;2.05;;;1.05;;
65668;SDS011;52376;47.448;19.354;2022-12-18T11:47:24;3.17;;;1.02;;
65668;SDS011;52376;47.448;19.354;2022-12-18T11:49:55;2.08;;;1.17;;
65668;SDS011;52376;47.448;19.354;2022-12-18T11:52:24;1.62;;;1.52;;
65668;SDS011;52376;47.448;19.354;2022-12-18T11:55:16;2.58;;;2.08;;
65668;SDS011;52376;47.448;19.354;2022-12-18T11:57:51;1.05;;;1.00;;
65668;SDS011;52376;47.448;19.354;2022-12-18T12:00:29;3.17;;;2.62;;
65668;SDS011;52376;47.448;19.354;2022-12-18T12:05:57;0.30;;;0.30;;
65668;SDS011;52376;47.448;19.354;2022-12-18T12:25:29;0.75;;;0.45;;
65668;SDS011;52376;47.448;19.354;2022-12-18T12:38:42;1.12;;;1.08;;
65668;SDS011;52376;47.448;19.354;2022-12-18T12:41:30;1.30;;;1.23;;
65668;SDS011;52376;47.448;19.354;2022-12-18T12:44:00;2.95;;;1.40;;
65668;SDS011;52376;47.448;19.354;2022-12-18T12:46:31;0.30;;;0.30;;
65668;SDS011;52376;47.448;19.354;2022-12-18T12:49:04;1.17;;;1.08;;
65668;SDS011;52376;47.448;19.354;2022-12-18T12:51:41;1.98;;;1.35;;
65668;SDS011;52376;47.448;19.354;2022-12-18T12:54:21;3.97;;;0.85;;
65668;SDS011;52376;47.448;19.354;2022-12-18T12:59:46;2.17;;;2.03;;
65668;SDS011;52376;47.448;19.354;2022-12-18T13:02:35;3.03;;;2.72;;
65668;SDS011;52376;47.448;19.354;2022-12-18T13:08:08;2.95;;;2.70;;
65668;SDS011;52376;47.448;19.354;2022-12-18T13:13:14;0.80;;;0.80;;
65668;SDS011;52376;47.448;19.354;2022-12-18T13:16:04;1.33;;;1.23;;
65668;SDS011;52376;47.448;19.354;2022-12-18T13:18:34;0.25;;;0.25;;
65668;SDS011;52376;47.448;19.354;2022-12-18T13:21:03;0.95;;;0.90;;
65668;SDS011;52376;47.448;19.354;2022-12-18T13:23:37;0.88;;;0.85;;
65668;SDS011;52376;47.448;19.354;2022-12-18T13:32:01;0.10;;;0.10;;
65668;SDS011;52376;47.448;19.354;2022-12-18T13:34:19;0.43;;;0.30;;
65668;SDS011;52376;47.448;19.354;2022-12-18T13:36:57;0.20;;;0.20;;
65668;SDS011;52376;47.448;19.354;2022-12-18T13:39:59;1.02;;;0.80;;
65668;SDS011;52376;47.448;19.354;2022-12-18T13:48:16;1.85;;;0.90;;
65668;SDS011;52376;47.448;19.354;2022-12-18T13:50:55;2.33;;;2.12;;
65668;SDS011;52376;47.448;19.354;2022-12-18T13:56:27;3.75;;;1.35;;
65668;SDS011;52376;47.448;19.354;2022-12-18T14:01:50;0.17;;;0.17;;
65668;SDS011;52376;47.448;19.354;2022-12-18T14:04:27;0.60;;;0.50;;
65668;SDS011;52376;47.448;19.354;2022-12-18T14:06:57;8.85;;;1.85;;
65668;SDS011;52376;47.448;19.354;2022-12-18T14:09:28;5.78;;;1.55;;
65668;SDS011;52376;47.448;19.354;2022-12-18T14:11:58;3.20;;;0.62;;
65668;SDS011;52376;47.448;19.354;2022-12-18T14:14:27;0.43;;;0.30;;
65668;SDS011;52376;47.448;19.354;2022-12-18T14:17:00;0.00;;;0.00;;
65668;SDS011;52376;47.448;19.354;2022-12-18T14:19:33;1.35;;;0.95;;
65668;SDS011;52376;47.448;19.354;2022-12-18T14:22:01;1.60;;;1.50;;
65668;SDS011;52376;47.448;19.354;2022-12-18T14:24:29;0.60;;;0.60;;
65668;SDS011;52376;47.448;19.354;2022-12-18T14:26:57;0.17;;;0.17;;
65668;SDS011;52376;47.448;19.354;2022-12-18T14:29:42;1.62;;;0.82;;
65668;SDS011;52376;47.448;19.354;2022-12-18T14:32:11;0.47;;;0.47;;
65668;SDS011;52376;47.448;19.354;2022-12-18T14:34:45;2.20;;;2.05;;
65668;SDS011;52376;47.448;19.354;2022-12-18T14:37:20;5.10;;;2.42;;
65668;SDS011;52376;47.448;19.354;2022-12-18T14:39:56;2.80;;;1.00;;
65668;SDS011;52376;47.448;19.354;2022-12-18T14:42:26;2.60;;;1.95;;
65668;SDS011;52376;47.448;19.354;2022-12-18T14:48:09;4.47;;;3.30;;
65668;SDS011;52376;47.448;19.354;2022-12-18T14:50:43;3.95;;;2.50;;
65668;SDS011;52376;47.448;19.354;2022-12-18T14:53:21;2.55;;;2.12;;
65668;SDS011;52376;47.448;19.354;2022-12-18T14:55:59;3.80;;;1.60;;
65668;SDS011;52376;47.448;19.354;2022-12-18T14:58:28;0.95;;;0.95;;
65668;SDS011;52376;47.448;19.354;2022-12-18T15:00:55;7.68;;;1.20;;
65668;SDS011;52376;47.448;19.354;2022-12-18T15:03:24;4.55;;;3.42;;
65668;SDS011;52376;47.448;19.354;2022-12-18T15:05:53;3.62;;;2.72;;
65668;SDS011;52376;47.448;19.354;2022-12-18T15:08:39;9.70;;;4.18;;
65668;SDS011;52376;47.448;19.354;2022-12-18T15:17:04;2.25;;;2.10;;
65668;SDS011;52376;47.448;19.354;2022-12-18T15:19:58;1.00;;;0.87;;
65668;SDS011;52376;47.448;19.354;2022-12-18T15:22:37;5.20;;;2.45;;
65668;SDS011;52376;47.448;19.354;2022-12-18T15:25:20;1.75;;;1.62;;
65668;SDS011;52376;47.448;19.354;2022-12-18T15:27:55;4.12;;;2.75;;
65668;SDS011;52376;47.448;19.354;2022-12-18T15:30:24;1.87;;;1.77;;
65668;SDS011;52376;47.448;19.354;2022-12-18T15:32:55;2.35;;;1.58;;
65668;SDS011;52376;47.448;19.354;2022-12-18T15:35:44;3.35;;;3.10;;
65668;SDS011;52376;47.448;19.354;2022-12-18T15:38:14;2.05;;;1.50;;
65668;SDS011;52376;47.448;19.354;2022-12-18T15:40:42;3.03;;;2.10;;
65668;SDS011;52376;47.448;19.354;2022-12-18T15:43:11;0.25;;;0.25;;
65668;SDS011;52376;47.448;19.354;2022-12-18T15:45:39;0.32;;;0.22;;
65668;SDS011;52376;47.448;19.354;2022-12-18T15:48:17;0.90;;;0.90;;
65668;SDS011;52376;47.448;19.354;2022-12-18T15:50:52;0.82;;;0.82;;
65668;SDS011;52376;47.448;19.354;2022-12-18T15:53:27;11.25;;;10.23;;
65668;SDS011;52376;47.448;19.354;2022-12-18T15:55:58;8.25;;;7.62;;
65668;SDS011;52376;47.448;19.354;2022-12-18T15:58:28;8.77;;;7.95;;
65668;SDS011;52376;47.448;19.354;2022-12-18T16:00:58;34.70;;;11.35;;
65668;SDS011;52376;47.448;19.354;2022-12-18T16:03:27;7.55;;;4.50;;
65668;SDS011;52376;47.448;19.354;2022-12-18T16:05:56;2.90;;;2.70;;
65668;SDS011;52376;47.448;19.354;2022-12-18T16:08:25;5.95;;;5.10;;
65668;SDS011;52376;47.448;19.354;2022-12-18T16:10:53;6.22;;;4.07;;
65668;SDS011;52376;47.448;19.354;2022-12-18T16:13:21;3.58;;;2.22;;
65668;SDS011;52376;47.448;19.354;2022-12-18T16:15:49;13.15;;;4.37;;
65668;SDS011;52376;47.448;19.354;2022-12-18T16:18:17;5.47;;;2.75;;
65668;SDS011;52376;47.448;19.354;2022-12-18T16:20:45;2.05;;;1.90;;
65668;SDS011;52376;47.448;19.354;2022-12-18T16:23:13;2.87;;;2.67;;
65668;SDS011;52376;47.448;19.354;2022-12-18T16:25:41;7.07;;;4.30;;
65668;SDS011;52376;47.448;19.354;2022-12-18T16:28:09;2.87;;;2.67;;
65668;SDS011;52376;47.448;19.354;2022-12-18T16:30:37;5.10;;;3.25;;
65668;SDS011;52376;47.448;19.354;2022-12-18T16:33:07;9.40;;;5.70;;
65668;SDS011;52376;47.448;19.354;2022-12-18T16:35:37;4.57;;;3.67;;
65668;SDS011;52376;47.448;19.354;2022-12-18T16:38:05;5.15;;;4.12;;
65668;SDS011;52376;47.448;19.354;2022-12-18T16:40:33;4.70;;;4.28;;
65668;SDS011;52376;47.448;19.354;2022-12-18T16:43:03;6.22;;;3.95;;
65668;SDS011;52376;47.448;19.354;2022-12-18T16:45:34;14.55;;;11.68;;
65668;SDS011;52376;47.448;19.354;2022-12-18T16:48:03;17.25;;;13.00;;
65668;SDS011;52376;47.448;19.354;2022-12-18T16:50:31;12.77;;;9.13;;
65668;SDS011;52376;47.448;19.354;2022-12-18T16:53:00;2.95;;;2.62;;
65668;SDS011;52376;47.448;19.354;2022-12-18T16:55:28;3.70;;;3.03;;
65668;SDS011;52376;47.448;19.354;2022-12-18T16:57:57;17.15;;;9.13;;
65668;SDS011;52376;47.448;19.354;2022-12-18T17:00:25;16.75;;;9.20;;
65668;SDS011;52376;47.448;19.354;2022-12-18T17:02:56;5.25;;;4.85;;
65668;SDS011;52376;47.448;19.354;2022-12-18T17:05:24;4.87;;;3.90;;
65668;SDS011;52376;47.448;19.354;2022-12-18T17:07:52;4.25;;;3.83;;
65668;SDS011;52376;47.448;19.354;2022-12-18T17:10:20;6.20;;;5.60;;
65668;SDS011;52376;47.448;19.354;2022-12-18T17:12:49;6.15;;;3.47;;
65668;SDS011;52376;47.448;19.354;2022-12-18T17:15:18;5.12;;;3.33;;
65668;SDS011;52376;47.448;19.354;2022-12-18T17:17:50;9.57;;;5.70;;
65668;SDS011;52376;47.448;19.354;2022-12-18T17:20:17;5.28;;;3.97;;
65668;SDS011;52376;47.448;19.354;2022-12-18T17:22:46;10.07;;;7.07;;
65668;SDS011;52376;47.448;19.354;2022-12-18T17:25:15;2.45;;;2.33;;
65668;SDS011;52376;47.448;19.354;2022-12-18T17:27:45;14.07;;;7.20;;
65668;SDS011;52376;47.448;19.354;2022-12-18T17:30:13;11.93;;;5.85;;
65668;SDS011;52376;47.448;19.354;2022-12-18T17:32:41;1.67;;;1.58;;